AirNav   Pilot Getaways
 
airports navaids fix Aviation Fuel airboss pilotshop
 489 users online  

76F Wills Point Municipal Airport
Wills Point, Texas, USA

GOING TO WILLS POINT?

Reserve a HOTEL Rent a CARRent from ENTERPRISE

FAA INFORMATION EFFECTIVE 20 NOVEMBER 2008

Location

FAA Identifier: 76F
Lat/Long: 32-40-53.4670N / 095-59-02.8840W
32-40.891117N / 095-59.048067W
32.6815186 / -95.9841344
(estimated)
Elevation: 518 ft. / 157.9 m (surveyed)
Variation: 06E (1985)
From city: 3 miles SE of WILLS POINT, TX
Time zone: UTC -6 (UTC -5 during Daylight Savings Time)
Zip code: 75169

Airport Operations

Airport use: Open to the public
Activation date: 08/1966
Sectional chart: DALLAS-FT WORTH
Control tower: no
ARTCC: FORT WORTH CENTER
FSS: FORT WORTH FLIGHT SERVICE STATION [817-541-3474]
NOTAMs facility: FTW (NOTAM-D service available)
Attendance: UNATNDD
Wind indicator: lighted
Segmented circle: yes
Lights: DUSK-DAWN
Beacon: white-green (lighted land airport)

Airport Communications

CTAF: 122.9
WX ASOS at TRL (14 nm W): 119.275 (972-551-1334)

Nearby radio navigation aids

VOR radial/distance  VOR name  Freq  Var
CQYr016/32.0CEDAR CREEK VORTAC114.8006E
UIMr241/33.4QUITMAN VOR/DME114.0008E
TYRr298/35.3TYLER VOR/DME114.2006E
SLRr208/38.2SULPHUR SPRINGS VOR/DME109.0008E

 
NDB name  Hdg/Dist  Freq  Var  ID
TRAVIS103/14.226006EAVZ .- ...- --..
CASH162/18.542805ESYW ... -.-- .--
CADDO MILLS142/25.331606EMII -- .. ..
JECCA082/27.738806EJUG .--- ..- --.
MESQUITE100/28.624806EPQF .--. --.- ..-.
ATHENS340/32.326906EAHX .- .... -..-
LANCASTER075/37.823906ELNC .-.. -. -.-.

Airport Services

Parking: tiedowns
Airframe service: MINOR
AIRFRAME & POWER PLANT REPAIRS BY PRIOR ARRANGEMENT, CALL 903-873-2578.
Powerplant service: MINOR
Bottled oxygen: NONE
Bulk oxygen: NONE

Runway Information

Runway 17/35

Dimensions: 3230 x 50 ft. / 985 x 15 m
Surface: asphalt, in good condition
Weight bearing capacity: 
Single wheel: 12.0
Runway edge lights: low intensity
Runway edge markings: RYS 17 & 35 NUMBERS ARE EXTREMELY FADED AND DIFFICULT TO READ.
RUNWAY 17  RUNWAY 35
Gradient: 0.2%0.2%
Traffic pattern: leftleft
Markings: basic, in poor conditionbasic, in poor condition
Obstructions: 35 ft. tree, 844 ft. from runway, 232 ft. left of centerline, 18:1 slope to clearnone

Airport Ownership and Management from official FAA records

Ownership: Publicly-owned
Owner: CITY OF WILLS POINT
PO BOX 505
WILLS POINT, TX 75169
Phone 903-873-2578
Manager: JIM STEPHENS, CITY MGR
PO BOX 505
WILLS POINT, TX 75169
Phone 903-873-2578

Airport Operational Statistics

Aircraft based on the field: 8
Single engine airplanes: 6
Helicopters: 2
    
Aircraft operations: avg 34/week *
67% local general aviation
33% transient general aviation
* for 12-month period ending 10 July 2008

Instrument Procedures

There are no published instrument procedures at 76F.

Some nearby airports with instrument procedures:

KTRL - Terrell Municipal Airport (14 nm W)
KGVT - Majors Airport (24 nm N)
3F9 - Mineola Airport-Wisener Field (24 nm E)
KJDD - Wood County Airport (25 nm E)
7F3 - Caddo Mills Municipal Airport (25 nm NW)
 
Loc | Ops | Rwys | IFR | FBO | Links
Com | Nav | Svcs | Stats | Notes

$3.85 $3.40

 
Area around 76F (Wills Point Municipal Airport)
 
Road maps at: MapQuest MapPoint Yahoo! Maps Google Rand McNally
Satellite photo at: TerraServer Virtual Earth

 
Aerial photo
No photo
 
Sectional chart
Click on chart to expand
Sectional chart courtesy of SkyVector.com

 
Airport distance calculator
Flying to Wills Point Municipal Airport? Find the distance to fly.

From to 76F

Sunrise and sunset
Times for 07-Jan-2009
 Local
(UTC-6)
 Zulu
(UTC)
Morning civil twilight07:0113:01
Sunrise07:2813:28
Sunset17:3323:33
Evening civil twilight18:0024:00

Current date and time
Zulu (UTC)  07-Jan-2009 12:20:59
Local (UTC-6)  07-Jan-2009 06:20:59
 
METAR
KTRL 
14nm W 
071153Z AUTO 21003KT 10SM CLR 01/M04 A2984 RMK AO2 SLP105 70005 T00061044 10033 21006 53005
KGVT 
23nm N 
071145Z AUTO 24005KT 10SM CLR 02/M03 A2982 RMK AO2
KJDD 
25nm E 
071145Z AUTO 00000KT 10SM CLR 03/M05 A2983 RMK AO2
KHQZ 
28nm W 
071145Z AUTO 21005KT 10SM CLR 00/M03 A2983 RMK AO1
TAF
KTYR 
35nm SE 
071133Z 0712/0812 29009KT P6SM SKC TEMPO 0716/0720 22014KT FM080000 20007KT P6SM SCT250
NOTAMs
Click for the latest NOTAMs
NOTAMs are issued by the DoD/FAA and will open in a separate window not controlled by AirNav.

 

 
 

Where to Stay: Hotels, Motels, Resorts, B&Bs, Campgrounds

 In this space we feature lodging establishments that are convenient to the Wills Point Municipal Airport. If your hotel/inn/B&B/resort is near the Wills Point Municipal Airport, provides convenient transportation, or is otherwise attractive to pilots, flight crews, and airport users, consider listing it here.  
Feature A Hotel
 

Hotels in other cities near Wills Point Municipal Airport

5 in Canton
7 in Terrell
 

Would you like to see your business listed on this page?

 If your business provides an interesting product or service to pilots, flight crews, aircraft, or users of the Wills Point Municipal Airport, you should consider listing it here.  To start the listing process, click on the button below
 
Add a business
 

Other Pages about Wills Point Municipal Airport

Update a link
 
Copyright © AirNav, LLC. All rights reserved. Privacy Policy  Contact